Time;durP1;ratioP1;P1;durP2;ratioP2;P2;SDS_P1;SDS_P2;PMS_P1;PMS_P2;Temp;Humidity;BMP_temperature;BMP_pressure;BME280_temperature;BME280_humidity;BME280_pressure;Samples;Min_cycle;Max_cycle;Signal;HPM_P1;HPM_P2
2022/09/20 00:02:32;;;;;;;11.35;2.10;;;11.70;73.40;;;;;;9179939;19;20453;-70
2022/09/20 00:05:36;;;;;;;8.18;2.25;;;11.60;73.30;;;;;;9183502;19;20010;-69
2022/09/20 00:08:40;;;;;;;14.13;1.20;;;11.60;73.40;;;;;;9182045;19;20358;-70
2022/09/20 00:11:44;;;;;;;13.57;2.03;;;11.60;73.50;;;;;;9181392;19;20495;-68
2022/09/20 00:14:49;;;;;;;6.72;1.30;;;11.60;74.10;;;;;;9184308;19;20010;-70
2022/09/20 00:17:53;;;;;;;8.82;1.50;;;11.60;73.50;;;;;;9183258;19;20019;-70
2022/09/20 00:20:57;;;;;;;6.95;2.20;;;11.60;73.50;;;;;;9180890;19;20026;-67
2022/09/20 00:24:01;;;;;;;7.55;1.88;;;11.60;73.50;;;;;;9182323;19;20090;-69
2022/09/20 00:27:05;;;;;;;9.75;1.90;;;11.60;73.60;;;;;;9183155;19;20019;-69
2022/09/20 00:30:11;;;;;;;;;;;11.60;73.60;;;;;;9180053;19;20047;-69
2022/09/20 00:33:15;;;;;;;9.95;1.55;;;11.60;73.60;;;;;;9182843;19;19927;-68
2022/09/20 00:36:16;;;;;;;10.10;1.50;;;11.60;73.60;;;;;;9183071;19;20021;-69
2022/09/20 00:39:20;;;;;;;7.30;2.35;;;11.60;73.60;;;;;;9180188;19;20358;-69
2022/09/20 00:42:28;;;;;;;7.43;2.10;;;11.60;73.60;;;;;;9182471;19;20019;-68
2022/09/20 00:45:35;;;;;;;14.73;1.40;;;11.60;73.60;;;;;;9181994;19;20762;-67
2022/09/20 00:48:38;;;;;;;6.35;1.40;;;11.60;73.70;;;;;;9181236;19;20509;-68
2022/09/20 00:51:46;;;;;;;8.48;2.13;;;11.60;73.70;;;;;;9182102;19;20015;-67
2022/09/20 00:54:50;;;;;;;7.63;1.40;;;11.50;73.70;;;;;;9181591;19;20022;-70
2022/09/20 00:57:54;;;;;;;7.50;1.35;;;11.50;73.70;;;;;;9181591;19;20078;-69
2022/09/20 01:01:00;;;;;;;6.63;1.40;;;11.50;73.70;;;;;;9173573;19;20014;-68
2022/09/20 01:04:05;;;;;;;13.05;1.75;;;11.50;73.80;;;;;;9181968;19;20022;-68
2022/09/20 01:07:10;;;;;;;6.65;1.50;;;11.40;73.70;;;;;;9179967;19;20026;-68
2022/09/20 01:10:14;;;;;;;11.95;1.95;;;11.40;73.80;;;;;;9178651;19;20018;-65
2022/09/20 01:13:18;;;;;;;6.45;1.52;;;11.40;73.80;;;;;;9181370;19;20479;-68
2022/09/20 01:16:25;;;;;;;8.93;1.63;;;11.30;73.80;;;;;;9181016;19;20007;-65
2022/09/20 01:19:38;;;;;;;9.10;1.83;;;11.30;73.90;;;;;;9180013;19;20025;-69
2022/09/20 01:22:54;;;;;;;18.35;2.90;;;11.30;74.00;;;;;;9181382;19;21083;-64
2022/09/20 01:26:28;;;;;;;8.02;1.38;;;11.20;73.90;;;;;;9179426;19;20028;-67
2022/09/20 01:29:49;;;;;;;7.65;1.42;;;11.20;74.00;;;;;;9178431;19;20498;-69
2022/09/20 01:33:03;;;;;;;5.18;1.42;;;11.10;73.90;;;;;;9180742;19;20015;-68
2022/09/20 01:36:10;;;;;;;15.02;1.75;;;11.10;74.60;;;;;;9180538;19;20018;-70
2022/09/20 01:39:23;;;;;;;8.75;1.40;;;11.10;74.10;;;;;;9180616;19;20359;-68
2022/09/20 01:42:33;;;;;;;6.15;1.67;;;11.00;74.10;;;;;;9179566;19;20021;-68
2022/09/20 01:45:42;;;;;;;12.88;2.00;;;11.00;74.10;;;;;;9177878;19;20007;-67
2022/09/20 01:48:46;;;;;;;8.90;1.48;;;10.90;74.10;;;;;;9179032;19;20023;-67
2022/09/20 01:52:19;;;;;;;10.68;1.50;;;10.90;74.10;;;;;;9180255;19;20078;-68
2022/09/20 01:55:59;;;;;;;8.52;1.63;;;10.90;74.40;;;;;;9179927;19;20022;-67
2022/09/20 01:59:19;;;;;;;9.02;1.73;;;10.80;74.30;;;;;;9179093;19;20375;-69
2022/09/20 02:02:44;;;;;;;9.35;1.55;;;10.80;74.30;;;;;;9176352;19;20022;-67
2022/09/20 02:06:14;;;;;;;10.65;1.80;;;10.80;74.30;;;;;;9175299;19;20018;-66
2022/09/20 02:09:50;;;;;;;21.40;1.67;;;10.70;74.30;;;;;;9176712;19;20043;-67
2022/09/20 02:12:56;;;;;;;10.73;1.70;;;10.70;74.40;;;;;;9178982;19;20037;-67
2022/09/20 02:16:20;;;;;;;7.72;1.67;;;10.70;74.40;;;;;;9178688;19;20074;-68
2022/09/20 02:19:57;;;;;;;9.23;1.40;;;10.60;74.50;;;;;;9179332;19;20010;-68
2022/09/20 02:23:17;;;;;;;6.18;1.33;;;10.60;74.50;;;;;;9178746;19;20075;-67
2022/09/20 02:26:33;;;;;;;5.32;1.58;;;10.60;74.50;;;;;;9179007;19;20019;-67
2022/09/20 02:29:49;;;;;;;7.07;2.13;;;10.50;74.50;;;;;;9176232;19;20520;-69
2022/09/20 02:33:11;;;;;;;7.38;1.38;;;10.50;74.60;;;;;;9178638;19;20359;-69
2022/09/20 02:36:31;;;;;;;4.43;1.23;;;10.50;74.70;;;;;;9177282;19;20052;-67
2022/09/20 02:39:38;;;;;;;6.75;1.40;;;10.50;74.70;;;;;;9178067;19;20017;-66
2022/09/20 02:42:48;;;;;;;8.35;1.48;;;10.50;74.70;;;;;;9178708;19;20043;-69
2022/09/20 02:46:00;;;;;;;6.78;1.40;;;10.50;74.80;;;;;;9176322;19;20024;-67
2022/09/20 02:49:12;;;;;;;11.48;1.30;;;10.50;74.90;;;;;;9176225;19;20046;-68
2022/09/20 02:52:27;;;;;;;8.18;1.27;;;10.50;74.90;;;;;;9178108;19;20083;-68
2022/09/20 02:55:41;;;;;;;8.18;1.40;;;10.40;74.90;;;;;;9178133;19;20019;-67
2022/09/20 02:58:55;;;;;;;4.28;1.05;;;10.50;75.00;;;;;;9175353;19;20018;-69
2022/09/20 03:02:09;;;;;;;9.30;1.43;;;10.50;75.00;;;;;;9174012;19;20353;-67
2022/09/20 03:05:19;;;;;;;5.32;1.17;;;10.40;75.00;;;;;;9178013;19;20652;-69
2022/09/20 03:08:35;;;;;;;6.03;2.40;;;10.40;75.00;;;;;;9175422;19;20018;-68
2022/09/20 03:11:49;;;;;;;4.18;1.30;;;10.50;75.10;;;;;;9183570;19;20112;-69
2022/09/20 03:15:05;;;;;;;3.70;1.23;;;10.40;75.10;;;;;;9185797;19;20033;-69
2022/09/20 03:18:12;;;;;;;8.65;1.58;;;10.50;75.20;;;;;;9184824;19;20038;-67
2022/09/20 03:21:29;;;;;;;9.35;1.60;;;10.50;75.20;;;;;;9185005;19;20003;-67
2022/09/20 03:24:45;;;;;;;10.38;1.60;;;10.40;75.20;;;;;;9185286;19;20082;-66
2022/09/20 03:27:57;;;;;;;9.57;1.35;;;10.40;75.30;;;;;;9184726;19;20015;-68
2022/09/20 03:31:12;;;;;;;11.38;1.85;;;10.40;75.20;;;;;;9185155;19;20018;-67
2022/09/20 03:34:30;;;;;;;6.10;1.40;;;10.40;75.30;;;;;;9183728;19;20551;-67
2022/09/20 03:37:51;;;;;;;8.63;1.58;;;10.40;75.30;;;;;;9185092;19;20024;-68
2022/09/20 03:41:30;;;;;;;6.05;1.30;;;10.40;75.30;;;;;;9184530;19;20426;-69
2022/09/20 03:45:06;;;;;;;9.68;1.38;;;10.40;75.50;;;;;;9183720;19;20073;-67
2022/09/20 03:48:28;;;;;;;11.13;2.20;;;10.40;75.50;;;;;;9183288;19;20463;-68
2022/09/20 03:51:39;;;;;;;7.07;1.88;;;10.40;75.40;;;;;;9184524;19;20006;-68
2022/09/20 03:55:04;;;;;;;3.50;1.15;;;10.40;75.50;;;;;;9183429;19;20777;-66
2022/09/20 03:58:27;;;;;;;8.57;1.38;;;10.40;75.60;;;;;;9180771;19;20070;-66
2022/09/20 04:01:47;;;;;;;5.15;1.30;;;10.40;75.60;;;;;;9179206;19;20043;-69
2022/09/20 04:04:56;;;;;;;6.57;1.65;;;10.40;75.70;;;;;;9183440;19;20767;-68
2022/09/20 04:08:11;;;;;;;4.93;1.50;;;10.40;75.60;;;;;;9182451;19;20083;-69
2022/09/20 04:11:25;;;;;;;4.57;1.40;;;10.40;75.70;;;;;;9183408;19;20094;-69
2022/09/20 04:14:38;;;;;;;5.10;1.40;;;10.40;75.80;;;;;;9182402;19;20026;-69
2022/09/20 04:17:50;;;;;;;5.95;1.15;;;10.40;75.90;;;;;;9183304;19;20020;-68
2022/09/20 04:21:00;;;;;;;4.95;1.05;;;10.40;75.80;;;;;;9182586;19;20591;-67
2022/09/20 04:24:11;;;;;;;9.18;1.73;;;10.50;75.90;;;;;;9183343;19;20113;-67
2022/09/20 04:27:22;;;;;;;7.57;1.42;;;10.50;75.90;;;;;;9183239;19;20490;-68
2022/09/20 04:30:30;;;;;;;12.00;1.70;;;10.50;76.00;;;;;;9180810;19;20015;-67
2022/09/20 04:33:40;;;;;;;10.85;1.75;;;10.50;76.00;;;;;;9182368;19;20014;-67
2022/09/20 04:37:01;;;;;;;5.88;1.27;;;10.50;76.00;;;;;;9182254;19;20482;-65
2022/09/20 04:40:19;;;;;;;7.82;1.52;;;10.50;76.10;;;;;;9181586;19;20032;-67
2022/09/20 04:44:08;;;;;;;5.05;1.30;;;10.50;76.10;;;;;;9183344;19;20248;-65
2022/09/20 04:47:41;;;;;;;7.72;2.00;;;10.60;76.30;;;;;;9180303;19;20023;-68
2022/09/20 04:51:12;;;;;;;11.35;1.58;;;10.60;76.20;;;;;;9176435;19;20507;-68
2022/09/20 04:54:46;;;;;;;6.47;2.85;;;10.60;76.20;;;;;;9178020;19;20463;-68
2022/09/20 04:58:21;;;;;;;6.03;1.23;;;10.60;76.20;;;;;;9182166;19;20024;-65
2022/09/20 05:02:11;;;;;;;17.27;1.83;;;10.60;76.90;;;;;;9176545;19;20025;-66
2022/09/20 05:05:56;;;;;;;6.78;1.38;;;10.70;76.40;;;;;;9183239;19;20015;-68
2022/09/20 05:09:30;;;;;;;9.85;2.47;;;10.70;76.40;;;;;;9177509;19;20015;-68
2022/09/20 05:12:59;;;;;;;8.50;1.42;;;10.70;76.50;;;;;;9178957;19;20025;-68
2022/09/20 05:16:06;;;;;;;10.52;1.73;;;10.80;76.50;;;;;;9181164;19;20022;-68
2022/09/20 05:19:26;;;;;;;10.32;1.92;;;10.80;76.70;;;;;;9179502;19;20015;-68
2022/09/20 05:23:01;;;;;;;10.25;1.70;;;10.80;76.50;;;;;;9182028;19;20109;-67
2022/09/20 05:26:13;;;;;;;10.55;1.75;;;10.80;76.60;;;;;;9181192;19;20013;-68
2022/09/20 05:29:25;;;;;;;8.02;1.90;;;10.80;76.50;;;;;;9178523;19;20432;-68
2022/09/20 05:32:35;;;;;;;14.57;1.90;;;10.90;76.60;;;;;;9176650;19;20507;-68
2022/09/20 05:35:48;;;;;;;12.13;2.60;;;10.90;76.60;;;;;;9179838;19;20017;-69
2022/09/20 05:38:58;;;;;;;5.82;1.92;;;10.90;76.70;;;;;;9180942;19;20033;-68
2022/09/20 05:42:17;;;;;;;8.73;2.22;;;10.90;76.70;;;;;;9180317;19;20041;-67
2022/09/20 05:45:34;;;;;;;;;;;10.90;76.70;;;;;;9180435;19;20102;-69
2022/09/20 05:48:47;;;;;;;5.07;1.60;;;11.00;76.70;;;;;;9179024;19;19937;-68
2022/09/20 05:52:08;;;;;;;14.13;1.63;;;11.00;76.60;;;;;;9180419;19;20081;-70
2022/09/20 05:55:36;;;;;;;8.50;1.60;;;11.00;76.70;;;;;;9178173;19;20022;-70
2022/09/20 05:58:53;;;;;;;7.53;2.20;;;11.10;76.90;;;;;;9178989;19;20038;-67
2022/09/20 06:02:19;;;;;;;8.80;2.00;;;11.10;76.90;;;;;;9173493;19;20030;-68
2022/09/20 06:05:34;;;;;;;8.35;1.55;;;11.10;77.00;;;;;;9177774;19;20007;-68
2022/09/20 06:09:01;;;;;;;5.07;1.63;;;11.20;77.00;;;;;;9177885;19;20017;-70
2022/09/20 06:12:37;;;;;;;4.82;1.90;;;11.20;77.10;;;;;;9180133;19;20524;-66
2022/09/20 06:15:51;;;;;;;6.38;2.08;;;11.20;77.20;;;;;;9178401;19;20066;-69
2022/09/20 06:19:02;;;;;;;;;;;11.30;77.10;;;;;;9179771;19;20021;-67
2022/09/20 06:22:16;;;;;;;9.90;2.42;;;11.30;77.00;;;;;;9175370;19;19974;-67
2022/09/20 06:25:23;;;;;;;6.30;2.25;;;11.40;77.00;;;;;;9173743;19;20535;-68
2022/09/20 06:28:31;;;;;;;6.68;1.83;;;11.40;77.10;;;;;;9173665;19;20018;-69
2022/09/20 06:31:35;;;;;;;11.77;2.50;;;11.40;77.20;;;;;;9174386;19;20103;-67
2022/09/20 06:34:40;;;;;;;12.52;1.70;;;11.50;77.30;;;;;;9170084;19;20022;-68
2022/09/20 06:44:26;;;;;;;14.68;1.70;;;11.60;77.30;;;;;;9177223;19;20011;-68
2022/09/20 06:47:29;;;;;;;7.70;1.63;;;11.60;77.30;;;;;;9180015;19;20380;-70
2022/09/20 06:50:35;;;;;;;8.90;1.90;;;11.70;77.40;;;;;;9174042;19;20360;-70
2022/09/20 06:53:41;;;;;;;13.00;2.08;;;11.70;77.40;;;;;;9177426;19;20089;-68
2022/09/20 06:56:46;;;;;;;5.38;1.90;;;11.70;77.50;;;;;;9174699;19;20030;-67
2022/09/20 06:59:50;;;;;;;8.35;1.77;;;11.80;77.50;;;;;;9180021;19;20797;-70
2022/09/20 07:02:55;;;;;;;14.57;1.95;;;11.80;77.60;;;;;;9175434;19;20044;-71
2022/09/20 07:06:03;;;;;;;11.05;2.38;;;11.80;77.50;;;;;;9179247;19;20090;-70
2022/09/20 07:09:07;;;;;;;8.68;2.17;;;11.90;77.60;;;;;;9176571;19;20018;-68
2022/09/20 07:12:11;;;;;;;10.30;2.72;;;11.90;77.70;;;;;;9179415;19;20019;-67
2022/09/20 07:15:15;;;;;;;6.25;1.83;;;12.00;77.70;;;;;;9178449;19;20031;-70
2022/09/20 07:18:19;;;;;;;5.07;1.80;;;12.00;77.80;;;;;;9179356;19;20028;-70
2022/09/20 07:21:25;;;;;;;9.75;1.50;;;12.10;77.80;;;;;;9178392;19;20026;-70
2022/09/20 07:24:31;;;;;;;5.60;1.30;;;12.20;77.80;;;;;;9179515;19;20082;-70
2022/09/20 07:27:34;;;;;;;9.63;2.25;;;12.20;77.80;;;;;;9176361;19;20018;-69
2022/09/20 07:30:38;;;;;;;9.43;1.50;;;12.30;77.90;;;;;;9175003;19;20073;-71
2022/09/20 07:33:42;;;;;;;7.68;1.55;;;12.40;77.80;;;;;;9177938;19;20040;-72
2022/09/20 07:36:48;;;;;;;10.85;1.65;;;12.40;77.80;;;;;;9178325;19;20366;-70
2022/09/20 07:39:51;;;;;;;12.43;1.58;;;12.50;77.70;;;;;;9178041;19;20018;-70
2022/09/20 07:42:57;;;;;;;8.15;1.30;;;12.50;77.70;;;;;;9174264;19;20090;-70
2022/09/20 07:46:01;;;;;;;4.50;1.33;;;12.60;77.80;;;;;;9177726;19;20031;-69
2022/09/20 07:49:07;;;;;;;9.18;2.08;;;12.70;77.80;;;;;;9177185;19;20011;-72
2022/09/20 07:52:13;;;;;;;12.15;1.70;;;12.80;77.80;;;;;;9176054;19;20495;-68
2022/09/20 07:55:17;;;;;;;11.43;2.33;;;12.90;77.80;;;;;;9174523;19;20094;-73
2022/09/20 07:58:21;;;;;;;5.50;1.50;;;13.00;77.80;;;;;;9179880;19;20479;-71
2022/09/20 08:01:24;;;;;;;5.43;1.52;;;13.00;77.70;;;;;;9173060;19;20353;-67
2022/09/20 08:04:28;;;;;;;4.55;2.03;;;13.10;77.70;;;;;;9186048;19;20092;-69
2022/09/20 08:07:34;;;;;;;9.75;1.75;;;13.30;77.80;;;;;;9180472;19;20987;-70
2022/09/20 08:10:39;;;;;;;5.88;1.63;;;13.40;77.90;;;;;;9182238;19;20018;-72
2022/09/20 08:13:44;;;;;;;3.40;0.98;;;13.50;77.90;;;;;;9180445;19;20425;-72
2022/09/20 08:17:08;;;;;;;3.20;1.02;;;13.60;77.80;;;;;;9174726;19;20010;-72
2022/09/20 08:20:12;;;;;;;8.13;1.52;;;13.80;77.60;;;;;;9177100;19;20014;-72
2022/09/20 08:23:18;;;;;;;;;;;14.00;77.60;;;;;;9179660;19;20022;-73
2022/09/20 08:26:29;;;;;;;8.65;2.50;;;14.10;77.40;;;;;;9177830;19;19929;-73
2022/09/20 08:29:33;;;;;;;9.65;1.50;;;14.20;77.20;;;;;;9174152;19;20014;-72
2022/09/20 08:32:40;;;;;;;6.03;1.08;;;14.30;77.10;;;;;;9176523;19;20701;-70
2022/09/20 08:35:43;;;;;;;5.70;1.25;;;14.40;77.00;;;;;;9178264;19;20022;-67
2022/09/20 08:38:49;;;;;;;4.32;1.00;;;14.50;76.80;;;;;;9176972;19;20954;-68
2022/09/20 08:42:23;;;;;;;3.70;1.20;;;14.60;76.70;;;;;;9179052;19;20022;-73
2022/09/20 08:45:27;;;;;;;12.35;1.75;;;14.70;76.70;;;;;;9179318;19;20112;-72
2022/09/20 08:48:38;;;;;;;7.75;1.33;;;14.80;76.60;;;;;;9178381;19;20019;-72
2022/09/20 08:51:43;;;;;;;6.38;1.00;;;14.90;76.60;;;;;;9179675;19;20019;-72
2022/09/20 08:54:55;;;;;;;6.70;0.98;;;15.00;76.60;;;;;;9172484;19;20037;-69
2022/09/20 08:58:01;;;;;;;8.55;1.20;;;15.10;76.50;;;;;;9183273;19;20010;-71
2022/09/20 09:01:19;;;;;;;2.13;0.80;;;15.20;76.40;;;;;;9175143;19;20018;-69
2022/09/20 09:04:24;;;;;;;5.45;1.90;;;15.40;76.30;;;;;;9181356;19;20015;-72
2022/09/20 09:07:29;;;;;;;18.30;3.63;;;15.50;76.20;;;;;;9177304;19;20044;-70
2022/09/20 09:10:39;;;;;;;11.57;3.08;;;15.70;76.20;;;;;;9173010;19;20010;-66
2022/09/20 09:13:52;;;;;;;26.10;4.95;;;15.90;76.10;;;;;;9176897;19;20010;-69
2022/09/20 09:16:56;;;;;;;4.40;1.40;;;16.10;75.90;;;;;;9181701;19;20032;-70
2022/09/20 09:20:08;;;;;;;4.45;1.20;;;16.20;75.60;;;;;;9173046;19;20021;-68
2022/09/20 09:23:24;;;;;;;13.15;2.97;;;16.40;75.50;;;;;;9174054;19;20041;-68
2022/09/20 09:26:36;;;;;;;5.40;1.25;;;16.70;75.20;;;;;;9176592;19;20374;-69
2022/09/20 09:29:51;;;;;;;6.97;1.02;;;16.80;75.00;;;;;;9175170;19;20014;-68
2022/09/20 09:33:22;;;;;;;7.22;0.82;;;17.10;74.80;;;;;;9173787;19;20018;-65
2022/09/20 09:36:27;;;;;;;4.63;1.10;;;17.30;74.50;;;;;;9173384;19;20039;-69
2022/09/20 09:39:33;;;;;;;4.65;1.25;;;17.50;74.30;;;;;;9173980;19;20050;-69
2022/09/20 09:42:37;;;;;;;6.53;0.98;;;17.70;74.00;;;;;;9175271;19;20022;-68
2022/09/20 09:45:40;;;;;;;;;;;17.90;73.70;;;;;;9175199;19;20023;-68
2022/09/20 09:48:49;;;;;;;23.05;3.88;;;18.10;73.50;;;;;;9180311;19;19922;-70
2022/09/20 09:52:06;;;;;;;3.53;0.85;;;18.20;73.40;;;;;;9182187;19;20011;-68
2022/09/20 09:55:16;;;;;;;7.22;1.08;;;18.40;72.90;;;;;;9181604;19;20010;-70
2022/09/20 09:58:27;;;;;;;3.05;1.10;;;18.50;72.40;;;;;;9177318;19;20086;-69
2022/09/20 10:01:40;;;;;;;5.80;1.00;;;18.50;72.70;;;;;;9172193;19;20420;-67
2022/09/20 10:04:52;;;;;;;3.70;1.05;;;18.60;71.80;;;;;;9174460;19;20025;-70
2022/09/20 10:08:12;;;;;;;6.47;0.90;;;18.60;72.10;;;;;;9180441;19;20018;-70
2022/09/20 10:11:33;;;;;;;4.00;0.90;;;18.60;71.30;;;;;;9176967;19;20088;-70
2022/09/20 10:14:52;;;;;;;4.70;0.95;;;18.60;70.90;;;;;;9176513;19;20018;-68
2022/09/20 10:18:10;;;;;;;6.22;1.00;;;18.60;70.80;;;;;;9176879;19;20074;-69
2022/09/20 10:21:27;;;;;;;4.15;1.05;;;18.60;70.90;;;;;;9161693;19;20103;-68
2022/09/20 10:24:47;;;;;;;3.97;1.73;;;18.60;70.80;;;;;;9172715;19;20022;-71
2022/09/20 10:28:08;;;;;;;5.15;1.00;;;18.60;70.50;;;;;;9165927;19;20019;-67
2022/09/20 10:31:26;;;;;;;5.47;0.90;;;18.70;70.50;;;;;;9163696;19;20025;-69
2022/09/20 10:35:13;;;;;;;11.05;1.15;;;18.70;70.30;;;;;;9165444;19;20374;-69
2022/09/20 10:38:25;;;;;;;4.68;0.90;;;18.70;69.80;;;;;;9160285;19;20023;-71
2022/09/20 10:45:08;;;;;;;8.38;1.42;;;18.70;69.60;;;;;;9161251;19;20034;-68
2022/09/20 10:48:18;;;;;;;2.47;0.70;;;18.80;69.40;;;;;;9167544;19;20022;-68
2022/09/20 10:51:31;;;;;;;7.28;1.27;;;18.80;69.50;;;;;;9164506;19;20019;-68
2022/09/20 10:54:52;;;;;;;6.68;1.55;;;18.70;69.20;;;;;;9164584;19;20094;-69
2022/09/20 10:58:28;;;;;;;4.93;1.33;;;18.70;69.10;;;;;;9165313;19;20491;-68
2022/09/20 11:01:41;;;;;;;6.43;1.00;;;18.70;68.90;;;;;;9165261;19;20535;-68
2022/09/20 11:05:09;;;;;;;5.95;1.15;;;18.60;69.00;;;;;;9164898;19;20463;-70
2022/09/20 11:08:17;;;;;;;4.10;0.90;;;18.50;69.00;;;;;;9163244;19;20022;-68
2022/09/20 11:11:28;;;;;;;5.82;1.00;;;18.40;69.20;;;;;;9162243;19;20018;-69
2022/09/20 11:14:36;;;;;;;5.00;1.30;;;18.30;69.20;;;;;;9164386;19;20026;-67
2022/09/20 11:17:44;;;;;;;4.00;0.80;;;18.20;69.10;;;;;;9164868;19;20022;-69
2022/09/20 11:20:53;;;;;;;5.95;0.80;;;18.10;69.20;;;;;;9165721;19;20015;-68
2022/09/20 11:24:03;;;;;;;7.93;1.42;;;18.00;69.30;;;;;;9166549;19;20546;-66
2022/09/20 11:27:17;;;;;;;4.47;1.10;;;17.90;69.20;;;;;;9160014;19;20026;-70
2022/09/20 11:30:21;;;;;;;;;;;17.80;69.40;;;;;;9161038;19;20019;-71
2022/09/20 11:33:29;;;;;;;4.85;1.33;;;17.80;69.70;;;;;;9171582;19;19966;-70
2022/09/20 11:36:40;;;;;;;7.38;1.13;;;17.80;69.80;;;;;;9169181;19;20045;-67
2022/09/20 11:39:49;;;;;;;13.85;1.33;;;17.70;69.80;;;;;;9173111;19;20029;-69
2022/09/20 11:42:58;;;;;;;5.53;0.90;;;17.80;69.90;;;;;;9177500;19;20092;-70
2022/09/20 11:46:07;;;;;;;6.50;0.93;;;17.90;69.80;;;;;;9177590;19;20025;-68
2022/09/20 11:49:16;;;;;;;5.45;1.10;;;18.10;69.80;;;;;;9177677;19;20039;-68
2022/09/20 11:52:42;;;;;;;5.20;0.93;;;18.20;69.60;;;;;;9180662;19;20007;-71
2022/09/20 11:55:53;;;;;;;6.47;0.65;;;18.40;69.10;;;;;;9180087;19;20018;-75
2022/09/20 11:59:01;;;;;;;4.10;0.90;;;18.60;68.90;;;;;;9173548;19;20018;-71
2022/09/20 12:02:14;;;;;;;6.65;0.80;;;18.80;68.60;;;;;;9166255;19;20110;-72
2022/09/20 12:05:31;;;;;;;7.75;1.70;;;18.90;68.30;;;;;;9171619;19;20014;-71
2022/09/20 12:08:38;;;;;;;10.32;1.02;;;19.00;67.90;;;;;;9172829;19;20023;-73
2022/09/20 12:11:42;;;;;;;6.97;1.23;;;19.10;67.90;;;;;;9176919;19;20760;-72
2022/09/20 12:14:55;;;;;;;3.95;0.85;;;19.20;67.80;;;;;;9176694;19;20025;-73
2022/09/20 12:18:22;;;;;;;3.03;0.93;;;19.30;67.40;;;;;;9176659;19;20581;-72
2022/09/20 12:21:27;;;;;;;5.88;0.90;;;19.30;67.20;;;;;;9177485;19;20858;-72
2022/09/20 12:24:32;;;;;;;8.00;1.33;;;19.30;67.30;;;;;;9175669;19;20055;-72
2022/09/20 12:27:58;;;;;;;5.35;1.00;;;19.30;67.20;;;;;;9178570;19;20024;-72
2022/09/20 12:31:32;;;;;;;4.30;1.10;;;19.20;66.80;;;;;;9176427;19;20485;-71
2022/09/20 12:34:38;;;;;;;1.58;0.50;;;19.20;66.80;;;;;;9177976;19;20038;-74
2022/09/20 12:37:42;;;;;;;1.20;0.60;;;19.20;67.00;;;;;;9177570;19;20082;-72
2022/09/20 12:41:00;;;;;;;4.93;0.68;;;19.10;66.90;;;;;;9184471;19;20044;-74
2022/09/20 12:44:20;;;;;;;1.60;0.30;;;19.10;66.40;;;;;;9183883;19;20022;-74
2022/09/20 12:47:27;;;;;;;2.00;0.50;;;19.00;66.50;;;;;;9185094;19;20093;-71
2022/09/20 12:54:01;;;;;;;4.63;0.88;;;18.90;66.20;;;;;;9183438;19;20007;-70
2022/09/20 12:57:18;;;;;;;7.07;0.90;;;18.90;65.80;;;;;;9184236;19;20579;-72
2022/09/20 13:00:35;;;;;;;1.77;0.50;;;18.80;65.70;;;;;;9179637;19;20014;-71
2022/09/20 13:03:40;;;;;;;8.85;1.58;;;18.80;65.70;;;;;;9181986;19;20029;-73
2022/09/20 13:06:46;;;;;;;2.28;0.52;;;18.70;65.80;;;;;;9175832;19;20572;-70
2022/09/20 13:09:51;;;;;;;1.75;0.40;;;18.60;65.70;;;;;;9167978;19;20047;-69
2022/09/20 13:13:01;;;;;;;4.80;1.00;;;18.60;65.80;;;;;;9169763;19;20014;-72
2022/09/20 13:16:07;;;;;;;2.17;0.55;;;18.50;65.70;;;;;;9171072;19;20018;-72
2022/09/20 13:19:17;;;;;;;2.78;0.65;;;18.40;65.70;;;;;;9172760;19;20010;-70
2022/09/20 13:22:29;;;;;;;2.70;0.68;;;18.40;65.60;;;;;;9175327;19;20090;-70
2022/09/20 13:25:35;;;;;;;3.42;1.17;;;18.40;65.60;;;;;;9179855;19;20117;-73
2022/09/20 13:28:41;;;;;;;8.88;0.70;;;18.40;65.50;;;;;;9179209;19;20024;-70
2022/09/20 13:31:44;;;;;;;2.78;0.65;;;18.30;65.50;;;;;;9175233;19;20018;-71
2022/09/20 13:35:06;;;;;;;4.60;0.73;;;18.30;65.50;;;;;;9179488;19;20018;-71
2022/09/20 13:38:11;;;;;;;5.70;0.93;;;18.20;65.30;;;;;;9179050;19;20535;-72
2022/09/20 13:41:16;;;;;;;4.53;1.13;;;18.20;65.50;;;;;;9179714;19;20412;-73
2022/09/20 13:44:20;;;;;;;3.75;1.40;;;18.20;65.50;;;;;;9179515;19;20387;-70
2022/09/20 13:47:26;;;;;;;6.90;1.77;;;18.20;65.60;;;;;;9177782;19;20082;-71
2022/09/20 13:50:33;;;;;;;5.47;1.20;;;18.10;65.50;;;;;;9178242;19;20041;-72
2022/09/20 13:53:39;;;;;;;5.18;0.93;;;18.10;65.60;;;;;;9176601;19;20015;-70
2022/09/20 13:56:45;;;;;;;6.82;1.15;;;18.10;65.60;;;;;;9178358;19;20014;-73
2022/09/20 13:59:51;;;;;;;5.78;1.10;;;18.10;65.60;;;;;;9180291;19;20081;-71
2022/09/20 14:02:56;;;;;;;5.03;1.20;;;18.00;65.60;;;;;;9174921;19;20499;-68
2022/09/20 14:06:01;;;;;;;5.82;0.77;;;18.10;65.70;;;;;;9178550;19;20022;-72
2022/09/20 14:09:09;;;;;;;4.00;1.42;;;18.00;65.60;;;;;;9175554;19;20024;-74
2022/09/20 14:12:16;;;;;;;6.10;0.80;;;18.00;65.50;;;;;;9178190;19;20010;-71
2022/09/20 14:15:20;;;;;;;5.35;1.00;;;18.00;65.60;;;;;;9175216;19;20014;-71
2022/09/20 14:18:23;;;;;;;;;;;18.00;65.60;;;;;;9179448;19;20039;-72
2022/09/20 14:21:32;;;;;;;4.05;0.98;;;18.00;65.80;;;;;;9177301;19;19939;-70
2022/09/20 14:24:38;;;;;;;5.30;0.88;;;18.00;65.90;;;;;;9175234;19;20025;-71
2022/09/20 14:27:42;;;;;;;4.38;0.80;;;17.90;65.70;;;;;;9177035;19;20024;-73
2022/09/20 14:30:47;;;;;;;2.83;0.80;;;17.90;65.70;;;;;;9174174;19;20018;-73
2022/09/20 14:33:53;;;;;;;5.18;0.90;;;17.90;65.70;;;;;;9178607;19;20085;-69
2022/09/20 14:37:06;;;;;;;9.18;1.17;;;17.90;65.70;;;;;;9176074;19;20413;-72
2022/09/20 14:40:25;;;;;;;5.65;1.10;;;17.90;65.70;;;;;;9177223;19;20026;-72
2022/09/20 14:43:32;;;;;;;7.35;1.20;;;17.90;65.70;;;;;;9167663;19;20102;-70
2022/09/20 14:46:37;;;;;;;3.92;0.93;;;17.90;65.80;;;;;;9171072;19;20081;-72
2022/09/20 14:49:43;;;;;;;6.45;0.93;;;17.80;65.80;;;;;;9169680;19;20022;-69
2022/09/20 14:52:47;;;;;;;4.45;0.70;;;17.80;65.80;;;;;;9170635;19;20047;-73
2022/09/20 14:56:09;;;;;;;8.90;1.85;;;17.70;65.80;;;;;;9178697;19;20027;-72
2022/09/20 14:59:25;;;;;;;5.07;1.02;;;17.70;65.80;;;;;;9171801;19;20485;-72
2022/09/20 15:02:29;;;;;;;6.03;1.40;;;17.70;65.80;;;;;;9166473;19;20132;-69
2022/09/20 15:05:33;;;;;;;3.50;0.88;;;17.70;65.90;;;;;;9176235;19;20025;-70
2022/09/20 15:08:37;;;;;;;9.02;1.10;;;17.80;65.90;;;;;;9170090;19;20064;-73
2022/09/20 15:11:45;;;;;;;6.75;1.00;;;17.80;65.80;;;;;;9168482;19;20546;-69
2022/09/20 15:14:49;;;;;;;6.15;1.20;;;17.80;65.80;;;;;;9171560;19;20423;-70
2022/09/20 15:17:53;;;;;;;4.03;0.65;;;17.80;65.70;;;;;;9173382;19;20015;-72
2022/09/20 15:20:57;;;;;;;5.57;0.88;;;17.90;65.70;;;;;;9170256;19;20010;-67
2022/09/20 15:24:01;;;;;;;8.98;1.15;;;17.80;65.60;;;;;;9177649;19;20022;-71
2022/09/20 15:27:06;;;;;;;2.42;0.85;;;17.80;65.70;;;;;;9178577;19;20360;-71
2022/09/20 15:30:12;;;;;;;5.97;0.90;;;17.80;65.60;;;;;;9180619;19;20093;-70
2022/09/20 15:33:16;;;;;;;8.07;1.33;;;17.80;65.70;;;;;;9177037;19;20014;-72
2022/09/20 15:36:19;;;;;;;3.70;0.85;;;17.80;65.70;;;;;;9176052;19;20059;-74
2022/09/20 15:39:23;;;;;;;5.97;1.05;;;17.80;65.80;;;;;;9172611;19;20094;-74
2022/09/20 15:42:29;;;;;;;2.83;0.90;;;17.80;65.80;;;;;;9168842;19;20133;-72
2022/09/20 15:45:33;;;;;;;2.67;0.70;;;17.80;65.80;;;;;;9165266;19;20481;-73
2022/09/20 15:48:40;;;;;;;4.43;1.08;;;17.80;65.90;;;;;;9171099;19;20082;-68
2022/09/20 15:51:45;;;;;;;12.02;1.00;;;17.70;65.90;;;;;;9171280;19;20407;-72
2022/09/20 15:54:48;;;;;;;4.22;1.00;;;17.70;65.90;;;;;;9173047;19;20086;-71
2022/09/20 15:57:54;;;;;;;6.35;1.38;;;17.70;66.00;;;;;;9170101;19;20666;-70
2022/09/20 16:01:04;;;;;;;6.13;1.67;;;17.70;66.00;;;;;;9167364;19;20015;-71
2022/09/20 16:04:09;;;;;;;3.80;0.70;;;17.60;66.00;;;;;;9173352;19;20105;-71
2022/09/20 16:07:14;;;;;;;5.18;0.88;;;17.60;66.10;;;;;;9170143;19;20474;-70
2022/09/20 16:10:18;;;;;;;4.90;0.95;;;17.60;66.10;;;;;;9169817;19;20018;-71
2022/09/20 16:13:24;;;;;;;3.58;0.88;;;17.60;66.30;;;;;;9171055;19;20024;-69
2022/09/20 16:16:29;;;;;;;5.65;1.45;;;17.50;66.20;;;;;;9171394;19;20026;-72
2022/09/20 16:19:33;;;;;;;5.00;1.50;;;17.50;66.20;;;;;;9172591;19;20049;-67
2022/09/20 16:22:37;;;;;;;6.90;1.08;;;17.50;66.30;;;;;;9171421;19;20026;-70
2022/09/20 16:25:40;;;;;;;4.85;1.08;;;17.50;66.40;;;;;;9172088;19;20018;-72
2022/09/20 16:28:47;;;;;;;8.02;1.30;;;17.50;66.40;;;;;;9173137;19;20468;-73
2022/09/20 16:31:52;;;;;;;2.65;0.93;;;17.40;66.40;;;;;;9171286;19;20018;-72
2022/09/20 16:34:57;;;;;;;3.95;1.33;;;17.40;66.40;;;;;;9175287;19;20066;-75
2022/09/20 16:38:01;;;;;;;1.70;0.90;;;17.40;66.50;;;;;;9175379;19;20022;-72
2022/09/20 16:41:04;;;;;;;6.57;1.23;;;17.40;66.60;;;;;;9176225;19;20079;-71
2022/09/20 16:44:11;;;;;;;5.45;0.60;;;17.30;66.60;;;;;;9176405;19;20011;-73
2022/09/20 16:47:22;;;;;;;4.38;1.02;;;17.30;66.70;;;;;;9176008;19;20203;-72
2022/09/20 16:50:26;;;;;;;2.17;0.82;;;17.30;66.70;;;;;;9173207;19;20025;-75
2022/09/20 16:53:30;;;;;;;6.03;1.52;;;17.20;66.80;;;;;;9176680;19;20059;-72